sensor_id;sensor_type;location;lat;lon;timestamp;pressure;altitude;pressure_sealevel;temperature;humidity
69524;BME280;56723;42.694;23.286;2023-03-25T00:01:16;94817.16;;;7.81;85.89
69524;BME280;56723;42.694;23.286;2023-03-25T00:03:44;94819.69;;;7.73;85.71
69524;BME280;56723;42.694;23.286;2023-03-25T00:06:16;94813.22;;;7.69;86.15
69524;BME280;56723;42.694;23.286;2023-03-25T00:08:43;94806.16;;;7.71;86.86
69524;BME280;56723;42.694;23.286;2023-03-25T00:11:11;94812.16;;;7.80;86.91
69524;BME280;56723;42.694;23.286;2023-03-25T00:13:38;94801.38;;;7.84;86.62
69524;BME280;56723;42.694;23.286;2023-03-25T00:16:06;94800.13;;;7.88;86.40
69524;BME280;56723;42.694;23.286;2023-03-25T00:18:36;94800.78;;;7.90;85.49
69524;BME280;56723;42.694;23.286;2023-03-25T00:21:04;94797.53;;;7.88;85.77
69524;BME280;56723;42.694;23.286;2023-03-25T00:23:37;94800.13;;;7.88;85.67
69524;BME280;56723;42.694;23.286;2023-03-25T00:26:05;94798.66;;;7.86;86.37
69524;BME280;56723;42.694;23.286;2023-03-25T00:28:34;94785.88;;;7.76;85.74
69524;BME280;56723;42.694;23.286;2023-03-25T00:31:05;94795.03;;;7.71;86.25
69524;BME280;56723;42.694;23.286;2023-03-25T00:33:33;94786.47;;;7.70;87.03
69524;BME280;56723;42.694;23.286;2023-03-25T00:36:02;94792.25;;;7.64;86.77
69524;BME280;56723;42.694;23.286;2023-03-25T00:38:33;94798.03;;;7.58;86.49
69524;BME280;56723;42.694;23.286;2023-03-25T00:41:19;94786.84;;;7.49;87.24
69524;BME280;56723;42.694;23.286;2023-03-25T00:43:59;94794.53;;;7.41;88.11
69524;BME280;56723;42.694;23.286;2023-03-25T00:46:29;94789.75;;;7.28;89.16
69524;BME280;56723;42.694;23.286;2023-03-25T00:48:57;94784.75;;;7.27;89.65
69524;BME280;56723;42.694;23.286;2023-03-25T00:51:26;94788.13;;;7.27;89.88
69524;BME280;56723;42.694;23.286;2023-03-25T00:53:55;94780.69;;;7.24;90.27
69524;BME280;56723;42.694;23.286;2023-03-25T00:56:23;94778.44;;;7.21;90.16
69524;BME280;56723;42.694;23.286;2023-03-25T00:58:50;94773.47;;;7.02;91.04
69524;BME280;56723;42.694;23.286;2023-03-25T01:01:23;94774.47;;;7.09;91.15
69524;BME280;56723;42.694;23.286;2023-03-25T01:03:55;94773.16;;;7.05;91.44
69524;BME280;56723;42.694;23.286;2023-03-25T01:06:28;94771.56;;;7.04;91.62
69524;BME280;56723;42.694;23.286;2023-03-25T01:09:00;94769.44;;;7.00;91.08
69524;BME280;56723;42.694;23.286;2023-03-25T01:11:30;94767.00;;;6.98;91.34
69524;BME280;56723;42.694;23.286;2023-03-25T01:14:01;94765.09;;;7.00;91.23
69524;BME280;56723;42.694;23.286;2023-03-25T01:16:29;94756.41;;;7.01;91.01
69524;BME280;56723;42.694;23.286;2023-03-25T01:18:56;94766.72;;;7.01;91.35
69524;BME280;56723;42.694;23.286;2023-03-25T01:21:24;94755.38;;;6.94;91.54
69524;BME280;56723;42.694;23.286;2023-03-25T01:23:51;94757.28;;;6.92;91.83
69524;BME280;56723;42.694;23.286;2023-03-25T01:26:18;94749.69;;;6.90;92.30
69524;BME280;56723;42.694;23.286;2023-03-25T01:28:45;94738.44;;;6.91;92.93
69524;BME280;56723;42.694;23.286;2023-03-25T01:31:13;94737.34;;;6.94;93.26
69524;BME280;56723;42.694;23.286;2023-03-25T01:33:41;94738.81;;;6.97;93.01
69524;BME280;56723;42.694;23.286;2023-03-25T01:36:09;94737.72;;;6.99;92.68
69524;BME280;56723;42.694;23.286;2023-03-25T01:38:39;94740.06;;;6.92;92.67
69524;BME280;56723;42.694;23.286;2023-03-25T01:41:08;94732.78;;;6.88;93.23
69524;BME280;56723;42.694;23.286;2023-03-25T01:43:35;94734.41;;;6.89;93.20
69524;BME280;56723;42.694;23.286;2023-03-25T01:46:02;94726.19;;;6.85;92.62
69524;BME280;56723;42.694;23.286;2023-03-25T01:48:35;94721.34;;;6.82;92.35
69524;BME280;56723;42.694;23.286;2023-03-25T01:51:19;94737.28;;;6.86;93.29
69524;BME280;56723;42.694;23.286;2023-03-25T01:53:48;94730.81;;;6.82;92.91
69524;BME280;56723;42.694;23.286;2023-03-25T01:56:19;94732.50;;;6.73;92.87
69524;BME280;56723;42.694;23.286;2023-03-25T01:58:50;94728.94;;;6.66;93.60
69524;BME280;56723;42.694;23.286;2023-03-25T02:01:18;94735.53;;;6.69;93.94
69524;BME280;56723;42.694;23.286;2023-03-25T02:03:49;94725.75;;;6.72;93.55
69524;BME280;56723;42.694;23.286;2023-03-25T02:08:51;94733.97;;;6.76;92.16
69524;BME280;56723;42.694;23.286;2023-03-25T02:11:20;94724.25;;;6.70;92.08
69524;BME280;56723;42.694;23.286;2023-03-25T02:13:47;94718.78;;;6.65;92.55
69524;BME280;56723;42.694;23.286;2023-03-25T02:27:26;94713.78;;;6.45;93.83
69524;BME280;56723;42.694;23.286;2023-03-25T02:41:14;94706.50;;;6.41;94.32
69524;BME280;56723;42.694;23.286;2023-03-25T02:43:50;94708.41;;;6.39;94.65
69524;BME280;56723;42.694;23.286;2023-03-25T02:46:21;94710.97;;;6.39;94.55
69524;BME280;56723;42.694;23.286;2023-03-25T02:48:57;94705.84;;;6.39;94.63
69524;BME280;56723;42.694;23.286;2023-03-25T02:51:29;94700.16;;;6.35;94.90
69524;BME280;56723;42.694;23.286;2023-03-25T02:54:05;94707.31;;;6.41;95.10
69524;BME280;56723;42.694;23.286;2023-03-25T02:56:36;94704.72;;;6.41;94.69
69524;BME280;56723;42.694;23.286;2023-03-25T02:59:07;94703.78;;;6.42;95.02
69524;BME280;56723;42.694;23.286;2023-03-25T03:01:35;94695.09;;;6.43;94.78
69524;BME280;56723;42.694;23.286;2023-03-25T03:04:02;94687.38;;;6.43;94.94
69524;BME280;56723;42.694;23.286;2023-03-25T03:06:39;94691.94;;;6.49;94.36
69524;BME280;56723;42.694;23.286;2023-03-25T03:09:28;94686.19;;;6.38;94.43
69524;BME280;56723;42.694;23.286;2023-03-25T03:12:09;94689.97;;;6.25;95.20
69524;BME280;56723;42.694;23.286;2023-03-25T03:22:45;94696.78;;;6.17;95.80
69524;BME280;56723;42.694;23.286;2023-03-25T03:25:19;94700.00;;;6.19;96.10
69524;BME280;56723;42.694;23.286;2023-03-25T03:27:55;94701.25;;;6.15;96.06
69524;BME280;56723;42.694;23.286;2023-03-25T03:30:30;94699.56;;;6.06;96.92
69524;BME280;56723;42.694;23.286;2023-03-25T03:35:48;94698.47;;;5.90;98.14
69524;BME280;56723;42.694;23.286;2023-03-25T03:38:20;94705.88;;;5.94;98.18
69524;BME280;56723;42.694;23.286;2023-03-25T03:40:52;94708.16;;;5.97;98.39
69524;BME280;56723;42.694;23.286;2023-03-25T03:44:08;94713.28;;;5.97;97.99
69524;BME280;56723;42.694;23.286;2023-03-25T03:46:37;94695.06;;;5.90;97.84
69524;BME280;56723;42.694;23.286;2023-03-25T03:49:09;94702.34;;;5.95;97.84
69524;BME280;56723;42.694;23.286;2023-03-25T03:51:47;94703.53;;;6.00;98.15
69524;BME280;56723;42.694;23.286;2023-03-25T03:54:18;94700.00;;;6.01;97.20
69524;BME280;56723;42.694;23.286;2023-03-25T03:57:01;94704.25;;;5.93;97.54
69524;BME280;56723;42.694;23.286;2023-03-25T04:02:06;94706.03;;;5.82;98.30
69524;BME280;56723;42.694;23.286;2023-03-25T04:04:38;94707.00;;;5.81;98.47
69524;BME280;56723;42.694;23.286;2023-03-25T04:07:17;94709.56;;;5.81;98.26
69524;BME280;56723;42.694;23.286;2023-03-25T04:09:56;94701.19;;;5.79;98.33
69524;BME280;56723;42.694;23.286;2023-03-25T04:12:41;94704.34;;;5.73;98.16
69524;BME280;56723;42.694;23.286;2023-03-25T04:15:10;94698.25;;;5.74;97.95
69524;BME280;56723;42.694;23.286;2023-03-25T04:17:37;94696.19;;;5.78;98.22
69524;BME280;56723;42.694;23.286;2023-03-25T04:20:05;94691.19;;;5.76;98.29
69524;BME280;56723;42.694;23.286;2023-03-25T04:22:34;94679.06;;;5.69;97.85
69524;BME280;56723;42.694;23.286;2023-03-25T04:25:05;94698.47;;;5.81;97.59
69524;BME280;56723;42.694;23.286;2023-03-25T04:27:32;94697.38;;;5.83;97.72
69524;BME280;56723;42.694;23.286;2023-03-25T04:30:07;94697.50;;;5.82;98.05
69524;BME280;56723;42.694;23.286;2023-03-25T04:32:34;94702.78;;;5.80;98.25
69524;BME280;56723;42.694;23.286;2023-03-25T04:35:02;94702.13;;;5.78;97.85
69524;BME280;56723;42.694;23.286;2023-03-25T04:37:29;94703.06;;;5.77;98.12
69524;BME280;56723;42.694;23.286;2023-03-25T04:39:59;94702.13;;;5.78;98.57
69524;BME280;56723;42.694;23.286;2023-03-25T04:42:26;94706.03;;;5.82;98.46
69524;BME280;56723;42.694;23.286;2023-03-25T04:44:59;94705.75;;;5.85;97.73
69524;BME280;56723;42.694;23.286;2023-03-25T04:47:26;94699.53;;;5.88;98.18
69524;BME280;56723;42.694;23.286;2023-03-25T04:49:53;94702.03;;;5.98;96.99
69524;BME280;56723;42.694;23.286;2023-03-25T04:52:20;94713.66;;;6.02;96.48
69524;BME280;56723;42.694;23.286;2023-03-25T04:54:47;94707.56;;;6.03;96.62
69524;BME280;56723;42.694;23.286;2023-03-25T04:57:14;94708.81;;;5.99;96.44
69524;BME280;56723;42.694;23.286;2023-03-25T04:59:42;94713.00;;;6.00;96.49
69524;BME280;56723;42.694;23.286;2023-03-25T05:02:10;94711.09;;;6.02;96.17
69524;BME280;56723;42.694;23.286;2023-03-25T05:04:39;94710.53;;;6.08;96.60
69524;BME280;56723;42.694;23.286;2023-03-25T05:07:13;94709.19;;;6.04;95.70
69524;BME280;56723;42.694;23.286;2023-03-25T05:09:42;94711.88;;;6.12;95.70
69524;BME280;56723;42.694;23.286;2023-03-25T05:12:09;94723.84;;;6.21;95.72
69524;BME280;56723;42.694;23.286;2023-03-25T05:14:37;94712.03;;;6.28;95.05
69524;BME280;56723;42.694;23.286;2023-03-25T05:17:04;94719.50;;;6.39;94.08
69524;BME280;56723;42.694;23.286;2023-03-25T05:19:31;94717.97;;;6.46;93.52
69524;BME280;56723;42.694;23.286;2023-03-25T05:22:01;94713.41;;;6.58;93.62
69524;BME280;56723;42.694;23.286;2023-03-25T05:24:29;94710.91;;;6.66;92.43
69524;BME280;56723;42.694;23.286;2023-03-25T05:26:56;94718.53;;;6.76;91.40
69524;BME280;56723;42.694;23.286;2023-03-25T05:29:23;94715.06;;;6.85;91.72
69524;BME280;56723;42.694;23.286;2023-03-25T05:31:50;94705.19;;;6.98;90.92
69524;BME280;56723;42.694;23.286;2023-03-25T05:34:17;94712.34;;;7.12;89.44
69524;BME280;56723;42.694;23.286;2023-03-25T05:36:46;94710.03;;;7.27;88.52
69524;BME280;56723;42.694;23.286;2023-03-25T05:39:13;94706.38;;;7.38;88.24
69524;BME280;56723;42.694;23.286;2023-03-25T05:41:41;94702.94;;;7.55;87.35
69524;BME280;56723;42.694;23.286;2023-03-25T05:44:09;94720.09;;;7.72;86.64
69524;BME280;56723;42.694;23.286;2023-03-25T05:46:41;94715.44;;;7.84;85.77
69524;BME280;56723;42.694;23.286;2023-03-25T05:49:08;94712.44;;;7.96;84.72
69524;BME280;56723;42.694;23.286;2023-03-25T05:51:36;94716.34;;;8.09;84.62
69524;BME280;56723;42.694;23.286;2023-03-25T05:54:04;94713.44;;;8.20;84.16
69524;BME280;56723;42.694;23.286;2023-03-25T05:56:38;94707.06;;;8.32;84.10
69524;BME280;56723;42.694;23.286;2023-03-25T05:59:06;94706.44;;;8.46;82.97
69524;BME280;56723;42.694;23.286;2023-03-25T06:01:34;94704.50;;;8.56;82.04
69524;BME280;56723;42.694;23.286;2023-03-25T06:04:04;94713.06;;;8.65;80.99
69524;BME280;56723;42.694;23.286;2023-03-25T06:06:31;94710.31;;;8.75;80.56
69524;BME280;56723;42.694;23.286;2023-03-25T06:09:00;94699.38;;;8.89;79.08
69524;BME280;56723;42.694;23.286;2023-03-25T06:11:28;94698.06;;;9.01;78.47
69524;BME280;56723;42.694;23.286;2023-03-25T06:13:55;94701.25;;;9.19;77.25
69524;BME280;56723;42.694;23.286;2023-03-25T06:16:23;94688.47;;;9.34;76.25
69524;BME280;56723;42.694;23.286;2023-03-25T06:18:56;94701.00;;;9.53;76.32
69524;BME280;56723;42.694;23.286;2023-03-25T06:21:28;94697.88;;;9.66;75.53
69524;BME280;56723;42.694;23.286;2023-03-25T06:23:57;94699.81;;;9.80;75.97
69524;BME280;56723;42.694;23.286;2023-03-25T06:26:25;94704.09;;;9.96;77.73
69524;BME280;56723;42.694;23.286;2023-03-25T06:28:52;94692.06;;;10.03;75.08
69524;BME280;56723;42.694;23.286;2023-03-25T06:31:24;94706.88;;;10.25;72.84
69524;BME280;56723;42.694;23.286;2023-03-25T06:34:00;94699.25;;;10.32;72.84
69524;BME280;56723;42.694;23.286;2023-03-25T06:36:27;94697.53;;;10.47;72.24
69524;BME280;56723;42.694;23.286;2023-03-25T06:38:54;94699.69;;;10.58;71.53
69524;BME280;56723;42.694;23.286;2023-03-25T06:41:22;94695.56;;;10.72;72.78
69524;BME280;56723;42.694;23.286;2023-03-25T06:44:17;94692.91;;;10.80;69.65
69524;BME280;56723;42.694;23.286;2023-03-25T06:47:08;94699.47;;;10.91;72.34
69524;BME280;56723;42.694;23.286;2023-03-25T06:49:41;94698.75;;;10.97;71.64
69524;BME280;56723;42.694;23.286;2023-03-25T06:52:08;94696.56;;;11.08;70.19
69524;BME280;56723;42.694;23.286;2023-03-25T06:54:36;94694.69;;;11.17;68.83
69524;BME280;56723;42.694;23.286;2023-03-25T06:57:04;94710.81;;;11.27;67.06
69524;BME280;56723;42.694;23.286;2023-03-25T06:59:31;94710.69;;;11.21;68.65
69524;BME280;56723;42.694;23.286;2023-03-25T07:01:58;94722.16;;;11.12;68.83
69524;BME280;56723;42.694;23.286;2023-03-25T07:04:25;94713.28;;;11.06;69.26
69524;BME280;56723;42.694;23.286;2023-03-25T07:06:52;94713.91;;;11.08;69.50
69524;BME280;56723;42.694;23.286;2023-03-25T07:09:23;94711.22;;;11.16;71.11
69524;BME280;56723;42.694;23.286;2023-03-25T07:11:50;94702.75;;;11.22;69.79
69524;BME280;56723;42.694;23.286;2023-03-25T07:14:16;94701.31;;;11.34;69.82
69524;BME280;56723;42.694;23.286;2023-03-25T07:16:44;94697.34;;;11.47;68.91
69524;BME280;56723;42.694;23.286;2023-03-25T07:19:11;94685.59;;;11.51;68.44
69524;BME280;56723;42.694;23.286;2023-03-25T07:21:38;94695.81;;;11.67;69.50
69524;BME280;56723;42.694;23.286;2023-03-25T07:24:05;94701.03;;;11.82;67.41
69524;BME280;56723;42.694;23.286;2023-03-25T07:26:32;94692.59;;;11.94;67.98
69524;BME280;56723;42.694;23.286;2023-03-25T07:28:59;94703.84;;;12.16;66.47
69524;BME280;56723;42.694;23.286;2023-03-25T07:31:26;94690.53;;;12.26;65.86
69524;BME280;56723;42.694;23.286;2023-03-25T07:33:54;94694.91;;;12.40;66.29
69524;BME280;56723;42.694;23.286;2023-03-25T07:36:21;94685.00;;;12.50;64.13
69524;BME280;56723;42.694;23.286;2023-03-25T07:38:51;94691.94;;;12.64;64.72
69524;BME280;56723;42.694;23.286;2023-03-25T07:41:22;94687.25;;;12.74;63.30
69524;BME280;56723;42.694;23.286;2023-03-25T07:44:12;94681.28;;;12.80;62.31
69524;BME280;56723;42.694;23.286;2023-03-25T07:46:43;94686.81;;;12.92;62.18
69524;BME280;56723;42.694;23.286;2023-03-25T07:49:11;94677.16;;;12.86;61.93
69524;BME280;56723;42.694;23.286;2023-03-25T07:51:38;94682.06;;;13.02;63.54
69524;BME280;56723;42.694;23.286;2023-03-25T07:54:05;94679.03;;;13.20;61.74
69524;BME280;56723;42.694;23.286;2023-03-25T07:56:33;94668.78;;;13.40;60.79
69524;BME280;56723;42.694;23.286;2023-03-25T07:59:00;94670.50;;;13.61;62.52
69524;BME280;56723;42.694;23.286;2023-03-25T08:01:27;94666.16;;;13.74;59.04
69524;BME280;56723;42.694;23.286;2023-03-25T08:03:54;94665.34;;;13.74;57.90
69524;BME280;56723;42.694;23.286;2023-03-25T08:06:23;94660.31;;;13.66;59.76
69524;BME280;56723;42.694;23.286;2023-03-25T08:08:50;94652.75;;;13.71;59.47
69524;BME280;56723;42.694;23.286;2023-03-25T08:11:18;94644.56;;;13.80;58.73
69524;BME280;56723;42.694;23.286;2023-03-25T08:13:45;94644.59;;;13.94;58.18
69524;BME280;56723;42.694;23.286;2023-03-25T08:16:13;94652.09;;;14.16;57.87
69524;BME280;56723;42.694;23.286;2023-03-25T08:18:41;94650.63;;;14.42;58.17
69524;BME280;56723;42.694;23.286;2023-03-25T08:21:12;94629.16;;;14.66;56.64
69524;BME280;56723;42.694;23.286;2023-03-25T08:23:39;94635.41;;;14.98;54.17
69524;BME280;56723;42.694;23.286;2023-03-25T08:26:06;94642.00;;;15.27;52.63
69524;BME280;56723;42.694;23.286;2023-03-25T08:28:33;94632.97;;;15.30;52.06
69524;BME280;56723;42.694;23.286;2023-03-25T08:31:05;94631.78;;;15.32;51.09
69524;BME280;56723;42.694;23.286;2023-03-25T08:33:32;94632.56;;;15.26;51.94
69524;BME280;56723;42.694;23.286;2023-03-25T08:36:08;94626.31;;;15.40;52.01
69524;BME280;56723;42.694;23.286;2023-03-25T08:38:40;94630.72;;;15.66;50.32
69524;BME280;56723;42.694;23.286;2023-03-25T08:41:07;94622.06;;;15.66;49.50
69524;BME280;56723;42.694;23.286;2023-03-25T08:43:34;94619.47;;;15.66;50.13
69524;BME280;56723;42.694;23.286;2023-03-25T08:46:01;94614.97;;;15.86;49.20
69524;BME280;56723;42.694;23.286;2023-03-25T08:48:28;94613.69;;;16.02;49.35
69524;BME280;56723;42.694;23.286;2023-03-25T08:50:55;94615.19;;;16.29;47.80
69524;BME280;56723;42.694;23.286;2023-03-25T08:53:23;94615.78;;;16.56;46.62
69524;BME280;56723;42.694;23.286;2023-03-25T08:55:56;94603.03;;;16.73;46.01
69524;BME280;56723;42.694;23.286;2023-03-25T08:58:24;94605.66;;;16.73;45.08
69524;BME280;56723;42.694;23.286;2023-03-25T09:00:53;94610.84;;;16.79;45.18
69524;BME280;56723;42.694;23.286;2023-03-25T09:03:22;94603.09;;;16.91;45.10
69524;BME280;56723;42.694;23.286;2023-03-25T09:05:49;94608.97;;;17.11;44.81
69524;BME280;56723;42.694;23.286;2023-03-25T09:08:17;94598.88;;;17.33;43.90
69524;BME280;56723;42.694;23.286;2023-03-25T09:10:44;94602.09;;;17.53;42.68
69524;BME280;56723;42.694;23.286;2023-03-25T09:13:11;94597.59;;;17.60;42.03
69524;BME280;56723;42.694;23.286;2023-03-25T09:15:38;94587.06;;;17.67;42.15
69524;BME280;56723;42.694;23.286;2023-03-25T09:18:06;94580.31;;;17.78;41.91
69524;BME280;56723;42.694;23.286;2023-03-25T09:20:33;94574.75;;;17.86;41.65
69524;BME280;56723;42.694;23.286;2023-03-25T09:23:00;94582.44;;;18.17;42.02
69524;BME280;56723;42.694;23.286;2023-03-25T09:25:27;94584.53;;;18.39;40.97
69524;BME280;56723;42.694;23.286;2023-03-25T09:27:54;94581.03;;;18.45;40.43
69524;BME280;56723;42.694;23.286;2023-03-25T09:30:21;94583.19;;;18.48;39.60
69524;BME280;56723;42.694;23.286;2023-03-25T09:32:48;94578.75;;;18.48;40.31
69524;BME280;56723;42.694;23.286;2023-03-25T09:35:15;94570.41;;;18.70;40.06
69524;BME280;56723;42.694;23.286;2023-03-25T09:37:42;94572.25;;;18.92;38.76
69524;BME280;56723;42.694;23.286;2023-03-25T09:40:17;94569.84;;;19.14;38.79
69524;BME280;56723;42.694;23.286;2023-03-25T09:42:55;94562.75;;;19.50;38.23
69524;BME280;56723;42.694;23.286;2023-03-25T09:45:45;94553.25;;;19.60;38.37
69524;BME280;56723;42.694;23.286;2023-03-25T09:51:10;94550.03;;;19.70;37.95
69524;BME280;56723;42.694;23.286;2023-03-25T09:56:16;94554.72;;;19.80;36.62
69524;BME280;56723;42.694;23.286;2023-03-25T09:58:45;94556.25;;;19.52;36.10
69524;BME280;56723;42.694;23.286;2023-03-25T10:06:43;94543.44;;;19.32;36.18
69524;BME280;56723;42.694;23.286;2023-03-25T10:12:00;94529.06;;;19.47;35.52
69524;BME280;56723;42.694;23.286;2023-03-25T10:23:42;94506.25;;;19.76;34.03
69524;BME280;56723;42.694;23.286;2023-03-25T10:26:26;94504.53;;;19.81;32.85
69524;BME280;56723;42.694;23.286;2023-03-25T10:28:59;94493.81;;;19.99;33.06
69524;BME280;56723;42.694;23.286;2023-03-25T10:31:34;94494.41;;;20.18;33.28
69524;BME280;56723;42.694;23.286;2023-03-25T10:34:06;94482.91;;;20.24;33.21
69524;BME280;56723;42.694;23.286;2023-03-25T10:36:45;94484.41;;;20.49;32.95
69524;BME280;56723;42.694;23.286;2023-03-25T10:39:20;94485.66;;;20.63;32.39
69524;BME280;56723;42.694;23.286;2023-03-25T10:41:58;94478.72;;;20.90;32.73
69524;BME280;56723;42.694;23.286;2023-03-25T10:44:26;94471.56;;;21.24;31.49
69524;BME280;56723;42.694;23.286;2023-03-25T10:47:07;94460.28;;;21.29;31.16
69524;BME280;56723;42.694;23.286;2023-03-25T10:49:39;94476.16;;;21.34;32.00
69524;BME280;56723;42.694;23.286;2023-03-25T10:52:08;94463.34;;;21.42;31.95
69524;BME280;56723;42.694;23.286;2023-03-25T10:54:39;94463.53;;;21.36;31.79
69524;BME280;56723;42.694;23.286;2023-03-25T10:57:09;94452.06;;;21.25;32.09
69524;BME280;56723;42.694;23.286;2023-03-25T10:59:44;94453.06;;;21.41;32.94
69524;BME280;56723;42.694;23.286;2023-03-25T11:02:18;94448.97;;;21.50;33.05
69524;BME280;56723;42.694;23.286;2023-03-25T11:04:50;94447.91;;;21.51;32.77
69524;BME280;56723;42.694;23.286;2023-03-25T11:07:21;94442.56;;;21.68;32.47
69524;BME280;56723;42.694;23.286;2023-03-25T11:09:49;94440.16;;;21.66;32.35
69524;BME280;56723;42.694;23.286;2023-03-25T11:12:19;94427.06;;;21.76;32.01
69524;BME280;56723;42.694;23.286;2023-03-25T11:15:04;94427.75;;;21.89;30.85
69524;BME280;56723;42.694;23.286;2023-03-25T11:17:31;94431.94;;;21.63;31.17
69524;BME280;56723;42.694;23.286;2023-03-25T11:20:04;94423.25;;;21.40;30.50
69524;BME280;56723;42.694;23.286;2023-03-25T11:22:37;94422.31;;;21.08;31.41
69524;BME280;56723;42.694;23.286;2023-03-25T11:25:22;94421.47;;;21.02;31.68
69524;BME280;56723;42.694;23.286;2023-03-25T11:27:57;94417.19;;;20.80;31.34
69524;BME280;56723;42.694;23.286;2023-03-25T11:30:25;94417.88;;;20.70;31.45
69524;BME280;56723;42.694;23.286;2023-03-25T11:33:03;94414.19;;;20.71;31.76
69524;BME280;56723;42.694;23.286;2023-03-25T11:35:32;94406.22;;;20.66;31.34
69524;BME280;56723;42.694;23.286;2023-03-25T11:38:14;94412.28;;;20.66;31.82
69524;BME280;56723;42.694;23.286;2023-03-25T11:40:50;94398.59;;;20.86;31.72
69524;BME280;56723;42.694;23.286;2023-03-25T11:43:24;94398.94;;;21.12;31.99
69524;BME280;56723;42.694;23.286;2023-03-25T11:45:52;94388.03;;;21.25;31.00
69524;BME280;56723;42.694;23.286;2023-03-25T11:48:28;94380.25;;;21.62;30.85
69524;BME280;56723;42.694;23.286;2023-03-25T11:51:00;94375.16;;;22.04;30.68
69524;BME280;56723;42.694;23.286;2023-03-25T11:53:30;94373.22;;;22.26;29.51
69524;BME280;56723;42.694;23.286;2023-03-25T11:56:06;94354.78;;;22.36;29.52
69524;BME280;56723;42.694;23.286;2023-03-25T11:58:36;94370.50;;;22.58;29.70
69524;BME280;56723;42.694;23.286;2023-03-25T12:07:12;94378.94;;;21.91;29.61
69524;BME280;56723;42.694;23.286;2023-03-25T12:09:53;94373.22;;;21.67;29.75
69524;BME280;56723;42.694;23.286;2023-03-25T12:15:21;94375.88;;;20.80;30.81
69524;BME280;56723;42.694;23.286;2023-03-25T12:20:59;94371.47;;;20.30;31.42
69524;BME280;56723;42.694;23.286;2023-03-25T12:26:18;94366.53;;;20.00;31.61
69524;BME280;56723;42.694;23.286;2023-03-25T12:28:58;94370.84;;;19.90;31.73
69524;BME280;56723;42.694;23.286;2023-03-25T12:38:17;94382.78;;;19.81;32.04
69524;BME280;56723;42.694;23.286;2023-03-25T12:43:36;94360.78;;;19.87;32.85
69524;BME280;56723;42.694;23.286;2023-03-25T12:49:57;94362.69;;;19.75;31.90
69524;BME280;56723;42.694;23.286;2023-03-25T13:05:47;94361.00;;;19.40;32.42
69524;BME280;56723;42.694;23.286;2023-03-25T13:08:39;94365.13;;;19.36;32.76
69524;BME280;56723;42.694;23.286;2023-03-25T13:11:19;94359.72;;;19.26;33.18
69524;BME280;56723;42.694;23.286;2023-03-25T13:13:50;94370.34;;;19.19;33.31
69524;BME280;56723;42.694;23.286;2023-03-25T13:16:24;94366.50;;;19.10;33.14
69524;BME280;56723;42.694;23.286;2023-03-25T13:18:59;94365.25;;;19.01;33.22
69524;BME280;56723;42.694;23.286;2023-03-25T13:21:30;94360.72;;;18.96;33.39
69524;BME280;56723;42.694;23.286;2023-03-25T13:24:06;94371.78;;;18.98;34.24
69524;BME280;56723;42.694;23.286;2023-03-25T13:26:39;94364.84;;;18.92;33.59
69524;BME280;56723;42.694;23.286;2023-03-25T13:29:28;94373.25;;;18.94;33.49
69524;BME280;56723;42.694;23.286;2023-03-25T13:31:58;94378.19;;;18.91;33.96
69524;BME280;56723;42.694;23.286;2023-03-25T13:42:55;94398.16;;;18.22;37.11
69524;BME280;56723;42.694;23.286;2023-03-25T13:45:25;94401.09;;;18.02;40.03
69524;BME280;56723;42.694;23.286;2023-03-25T13:47:56;94414.75;;;17.81;40.05
69524;BME280;56723;42.694;23.286;2023-03-25T13:50:29;94405.41;;;17.55;40.55
69524;BME280;56723;42.694;23.286;2023-03-25T13:53:02;94431.69;;;17.48;41.92
69524;BME280;56723;42.694;23.286;2023-03-25T13:55:35;94435.81;;;17.08;43.33
69524;BME280;56723;42.694;23.286;2023-03-25T13:58:14;94440.25;;;16.71;46.29
69524;BME280;56723;42.694;23.286;2023-03-25T14:06:52;94435.75;;;16.10;52.15
69524;BME280;56723;42.694;23.286;2023-03-25T14:12:34;94439.22;;;15.72;55.26
69524;BME280;56723;42.694;23.286;2023-03-25T14:15:30;94438.28;;;15.53;57.80
69524;BME280;56723;42.694;23.286;2023-03-25T14:17:59;94435.50;;;15.48;57.46
69524;BME280;56723;42.694;23.286;2023-03-25T14:20:35;94434.72;;;15.41;57.99
69524;BME280;56723;42.694;23.286;2023-03-25T14:23:19;94428.97;;;15.26;59.76
69524;BME280;56723;42.694;23.286;2023-03-25T14:25:56;94439.69;;;15.18;61.73
69524;BME280;56723;42.694;23.286;2023-03-25T14:28:34;94436.94;;;15.00;65.46
69524;BME280;56723;42.694;23.286;2023-03-25T14:36:28;94385.50;;;14.55;71.98
69524;BME280;56723;42.694;23.286;2023-03-25T14:38:56;94361.03;;;14.50;72.06
69524;BME280;56723;42.694;23.286;2023-03-25T14:44:33;94374.88;;;14.57;69.91
69524;BME280;56723;42.694;23.286;2023-03-25T14:50:01;94359.03;;;14.59;68.56
69524;BME280;56723;42.694;23.286;2023-03-25T14:52:44;94353.19;;;14.63;68.48
69524;BME280;56723;42.694;23.286;2023-03-25T14:55:24;94348.75;;;14.70;68.53
69524;BME280;56723;42.694;23.286;2023-03-25T14:58:10;94343.31;;;14.72;67.45
69524;BME280;56723;42.694;23.286;2023-03-25T15:00:44;94346.31;;;14.75;66.51
69524;BME280;56723;42.694;23.286;2023-03-25T15:03:17;94342.47;;;14.84;66.20
69524;BME280;56723;42.694;23.286;2023-03-25T15:05:52;94336.41;;;14.90;67.19
69524;BME280;56723;42.694;23.286;2023-03-25T15:08:34;94337.00;;;14.99;67.55
69524;BME280;56723;42.694;23.286;2023-03-25T15:11:14;94340.16;;;15.08;66.28
69524;BME280;56723;42.694;23.286;2023-03-25T15:13:46;94330.06;;;15.18;65.43
69524;BME280;56723;42.694;23.286;2023-03-25T15:16:26;94335.03;;;15.26;63.94
69524;BME280;56723;42.694;23.286;2023-03-25T15:21:24;94339.06;;;15.22;65.24
69524;BME280;56723;42.694;23.286;2023-03-25T15:24:08;94322.28;;;15.11;64.33
69524;BME280;56723;42.694;23.286;2023-03-25T15:26:44;94314.13;;;14.95;64.41
69524;BME280;56723;42.694;23.286;2023-03-25T15:34:44;94316.53;;;14.96;66.14
69524;BME280;56723;42.694;23.286;2023-03-25T15:45:46;94320.47;;;15.12;66.98